sensor_id;sensor_type;location;lat;lon;timestamp;pressure;altitude;pressure_sealevel;temperature;humidity
13765;BME280;6953;48.810;9.204;2022-09-03T00:01:40;98277.84;;;18.54;68.31
13765;BME280;6953;48.810;9.204;2022-09-03T00:04:17;98284.16;;;18.62;68.28
13765;BME280;6953;48.810;9.204;2022-09-03T00:06:48;98220.09;;;18.37;67.75
13765;BME280;6953;48.810;9.204;2022-09-03T00:09:28;98326.25;;;19.04;67.29
13765;BME280;6953;48.810;9.204;2022-09-03T00:12:08;98277.97;;;18.90;66.81
13765;BME280;6953;48.810;9.204;2022-09-03T00:14:40;98213.94;;;18.55;66.17
13765;BME280;6953;48.810;9.204;2022-09-03T00:17:14;98215.75;;;18.64;66.61
13765;BME280;6953;48.810;9.204;2022-09-03T00:20:02;98300.91;;;19.19;66.20
13765;BME280;6953;48.810;9.204;2022-09-03T00:22:54;98308.59;;;19.32;66.40
13765;BME280;6953;48.810;9.204;2022-09-03T00:25:46;98306.31;;;19.37;66.19
13765;BME280;6953;48.810;9.204;2022-09-03T00:28:21;98268.31;;;18.98;65.71
13765;BME280;6953;48.810;9.204;2022-09-03T00:30:51;98239.88;;;18.99;65.51
13765;BME280;6953;48.810;9.204;2022-09-03T00:33:24;98205.34;;;18.89;66.10
13765;BME280;6953;48.810;9.204;2022-09-03T00:38:28;98307.25;;;19.55;66.50
13765;BME280;6953;48.810;9.204;2022-09-03T00:41:31;98313.13;;;19.58;66.38
13765;BME280;6953;48.810;9.204;2022-09-03T00:44:16;98315.63;;;19.60;66.42
13765;BME280;6953;48.810;9.204;2022-09-03T00:52:35;98219.88;;;19.14;67.38
13765;BME280;6953;48.810;9.204;2022-09-03T00:55:24;98305.13;;;19.58;67.49
13765;BME280;6953;48.810;9.204;2022-09-03T01:00:56;98311.03;;;19.52;67.39
13765;BME280;6953;48.810;9.204;2022-09-03T01:06:11;98309.75;;;19.56;66.51
13765;BME280;6953;48.810;9.204;2022-09-03T01:09:19;98307.78;;;19.58;66.11
13765;BME280;6953;48.810;9.204;2022-09-03T01:12:28;98307.63;;;19.60;66.42
13765;BME280;6953;48.810;9.204;2022-09-03T01:17:32;98305.53;;;19.63;65.60
13765;BME280;6953;48.810;9.204;2022-09-03T01:20:24;98317.16;;;19.62;65.82
13765;BME280;6953;48.810;9.204;2022-09-03T01:26:06;98302.84;;;19.73;66.22
13765;BME280;6953;48.810;9.204;2022-09-03T01:45:56;98201.66;;;19.00;67.23
13765;BME280;6953;48.810;9.204;2022-09-03T01:48:52;98278.31;;;19.42;66.43
13765;BME280;6953;48.810;9.204;2022-09-03T01:51:24;98277.44;;;19.42;65.85
13765;BME280;6953;48.810;9.204;2022-09-03T01:59:14;98260.50;;;19.43;67.02
13765;BME280;6953;48.810;9.204;2022-09-03T02:02:10;98317.22;;;19.80;66.83
13765;BME280;6953;48.810;9.204;2022-09-03T02:04:58;98294.00;;;19.72;66.25
13765;BME280;6953;48.810;9.204;2022-09-03T02:07:24;98314.44;;;19.81;66.59
13765;BME280;6953;48.810;9.204;2022-09-03T02:09:51;98310.91;;;19.81;66.80
13765;BME280;6953;48.810;9.204;2022-09-03T02:12:17;98321.28;;;19.84;67.65
13765;BME280;6953;48.810;9.204;2022-09-03T02:14:44;98190.03;;;19.10;67.72
13765;BME280;6953;48.810;9.204;2022-09-03T02:17:10;98325.22;;;19.80;67.95
13765;BME280;6953;48.810;9.204;2022-09-03T02:19:38;98270.56;;;19.49;68.25
13765;BME280;6953;48.810;9.204;2022-09-03T02:22:04;98313.78;;;19.70;67.99
13765;BME280;6953;48.810;9.204;2022-09-03T02:24:30;98186.19;;;18.86;67.54
13765;BME280;6953;48.810;9.204;2022-09-03T02:26:55;98271.72;;;19.37;67.77
13765;BME280;6953;48.810;9.204;2022-09-03T02:29:21;98335.78;;;19.72;67.63
13765;BME280;6953;48.810;9.204;2022-09-03T02:31:46;98322.59;;;19.70;67.29
13765;BME280;6953;48.810;9.204;2022-09-03T02:34:12;98334.09;;;19.71;67.04
13765;BME280;6953;48.810;9.204;2022-09-03T02:36:41;98230.06;;;19.09;67.36
13765;BME280;6953;48.810;9.204;2022-09-03T02:39:07;98333.28;;;19.61;67.79
13765;BME280;6953;48.810;9.204;2022-09-03T02:41:33;98320.75;;;19.34;68.13
13765;BME280;6953;48.810;9.204;2022-09-03T02:44:11;98230.00;;;18.73;68.58
13765;BME280;6953;48.810;9.204;2022-09-03T02:46:42;98312.09;;;19.04;69.21
13765;BME280;6953;48.810;9.204;2022-09-03T02:49:08;98303.16;;;18.86;69.88
13765;BME280;6953;48.810;9.204;2022-09-03T02:51:39;98314.34;;;18.80;70.75
13765;BME280;6953;48.810;9.204;2022-09-03T02:54:05;98313.94;;;18.66;71.49
13765;BME280;6953;48.810;9.204;2022-09-03T02:56:30;98271.00;;;18.32;72.15
13765;BME280;6953;48.810;9.204;2022-09-03T02:58:56;98089.16;;;17.12;72.55
13765;BME280;6953;48.810;9.204;2022-09-03T03:01:22;98260.97;;;17.96;73.02
13765;BME280;6953;48.810;9.204;2022-09-03T03:03:47;98251.47;;;17.94;73.59
13765;BME280;6953;48.810;9.204;2022-09-03T03:06:13;98217.34;;;17.61;74.15
13765;BME280;6953;48.810;9.204;2022-09-03T03:08:39;98306.56;;;18.11;74.03
13765;BME280;6953;48.810;9.204;2022-09-03T03:11:05;98243.75;;;17.72;73.26
13765;BME280;6953;48.810;9.204;2022-09-03T03:13:31;98323.97;;;18.34;73.30
13765;BME280;6953;48.810;9.204;2022-09-03T03:16:03;98314.75;;;18.38;73.38
13765;BME280;6953;48.810;9.204;2022-09-03T03:18:30;98268.56;;;18.10;72.87
13765;BME280;6953;48.810;9.204;2022-09-03T03:20:55;98293.22;;;18.31;73.21
13765;BME280;6953;48.810;9.204;2022-09-03T03:23:21;98329.88;;;18.56;73.17
13765;BME280;6953;48.810;9.204;2022-09-03T03:25:47;98331.69;;;18.56;73.22
13765;BME280;6953;48.810;9.204;2022-09-03T03:28:12;98324.16;;;18.51;74.06
13765;BME280;6953;48.810;9.204;2022-09-03T03:30:38;98341.47;;;18.46;74.13
13765;BME280;6953;48.810;9.204;2022-09-03T03:33:05;98346.38;;;18.50;74.25
13765;BME280;6953;48.810;9.204;2022-09-03T03:35:31;98279.75;;;18.14;73.77
13765;BME280;6953;48.810;9.204;2022-09-03T03:37:57;98324.84;;;18.34;73.76
13765;BME280;6953;48.810;9.204;2022-09-03T03:40:23;98252.59;;;17.91;73.72
13765;BME280;6953;48.810;9.204;2022-09-03T03:42:49;98244.47;;;17.83;73.83
13765;BME280;6953;48.810;9.204;2022-09-03T03:45:15;98252.72;;;17.90;73.97
13765;BME280;6953;48.810;9.204;2022-09-03T03:47:40;98344.09;;;18.36;74.23
13765;BME280;6953;48.810;9.204;2022-09-03T03:50:06;98265.44;;;17.86;74.21
13765;BME280;6953;48.810;9.204;2022-09-03T03:52:31;98343.56;;;18.42;74.42
13765;BME280;6953;48.810;9.204;2022-09-03T03:54:57;98336.16;;;18.46;74.57
13765;BME280;6953;48.810;9.204;2022-09-03T03:57:22;97956.66;;;16.24;74.39
13765;BME280;6953;48.810;9.204;2022-09-03T03:59:48;98344.72;;;18.59;75.40
13765;BME280;6953;48.810;9.204;2022-09-03T04:02:14;98357.56;;;18.63;76.22
13765;BME280;6953;48.810;9.204;2022-09-03T04:04:40;98253.19;;;18.04;75.98
13765;BME280;6953;48.810;9.204;2022-09-03T04:07:06;98350.88;;;18.69;75.92
13765;BME280;6953;48.810;9.204;2022-09-03T04:09:31;98132.81;;;17.47;76.21
13765;BME280;6953;48.810;9.204;2022-09-03T04:11:57;98307.34;;;18.41;77.09
13765;BME280;6953;48.810;9.204;2022-09-03T04:14:26;98226.47;;;17.96;76.84
13765;BME280;6953;48.810;9.204;2022-09-03T04:16:52;98320.09;;;18.47;76.92
13765;BME280;6953;48.810;9.204;2022-09-03T04:19:19;98338.44;;;18.60;76.39
13765;BME280;6953;48.810;9.204;2022-09-03T04:21:45;98279.25;;;18.29;75.63
13765;BME280;6953;48.810;9.204;2022-09-03T04:24:10;98320.66;;;18.70;74.66
13765;BME280;6953;48.810;9.204;2022-09-03T04:26:36;98348.91;;;18.89;74.09
13765;BME280;6953;48.810;9.204;2022-09-03T04:29:05;98233.50;;;18.26;74.38
13765;BME280;6953;48.810;9.204;2022-09-03T04:31:31;98296.03;;;18.68;73.72
13765;BME280;6953;48.810;9.204;2022-09-03T04:33:56;98344.00;;;18.94;72.76
13765;BME280;6953;48.810;9.204;2022-09-03T04:36:24;98348.06;;;18.98;72.33
13765;BME280;6953;48.810;9.204;2022-09-03T04:38:52;98355.91;;;19.00;71.88
13765;BME280;6953;48.810;9.204;2022-09-03T04:41:23;98346.13;;;19.00;71.82
13765;BME280;6953;48.810;9.204;2022-09-03T04:43:50;98310.59;;;18.73;71.91
13765;BME280;6953;48.810;9.204;2022-09-03T04:46:16;98251.00;;;18.38;71.65
13765;BME280;6953;48.810;9.204;2022-09-03T04:48:42;98337.72;;;18.86;71.46
13765;BME280;6953;48.810;9.204;2022-09-03T04:51:12;98332.56;;;18.94;71.12
13765;BME280;6953;48.810;9.204;2022-09-03T04:53:43;98284.69;;;18.66;70.91
13765;BME280;6953;48.810;9.204;2022-09-03T04:58:38;98333.53;;;18.93;70.98
13765;BME280;6953;48.810;9.204;2022-09-03T05:01:08;98296.03;;;18.77;70.89
13765;BME280;6953;48.810;9.204;2022-09-03T05:03:33;98312.97;;;18.95;70.35
13765;BME280;6953;48.810;9.204;2022-09-03T05:05:58;98353.81;;;19.32;70.13
13765;BME280;6953;48.810;9.204;2022-09-03T05:08:24;98290.13;;;19.02;69.40
13765;BME280;6953;48.810;9.204;2022-09-03T05:10:57;98277.66;;;19.12;68.95
13765;BME280;6953;48.810;9.204;2022-09-03T05:13:24;98342.41;;;19.58;69.01
13765;BME280;6953;48.810;9.204;2022-09-03T05:15:49;98339.97;;;19.65;68.41
13765;BME280;6953;48.810;9.204;2022-09-03T05:18:14;98243.22;;;19.20;68.89
13765;BME280;6953;48.810;9.204;2022-09-03T05:20:40;98354.09;;;19.84;69.35
13765;BME280;6953;48.810;9.204;2022-09-03T05:23:05;98355.75;;;19.85;69.57
13765;BME280;6953;48.810;9.204;2022-09-03T05:25:31;98337.94;;;19.86;69.42
13765;BME280;6953;48.810;9.204;2022-09-03T05:27:57;98291.28;;;19.55;69.29
13765;BME280;6953;48.810;9.204;2022-09-03T05:30:22;98206.81;;;19.11;69.19
13765;BME280;6953;48.810;9.204;2022-09-03T05:32:49;98354.84;;;20.03;68.74
13765;BME280;6953;48.810;9.204;2022-09-03T05:35:15;98350.56;;;20.20;68.48
13765;BME280;6953;48.810;9.204;2022-09-03T05:37:40;98356.94;;;20.36;67.89
13765;BME280;6953;48.810;9.204;2022-09-03T05:40:06;98285.00;;;20.09;67.07
13765;BME280;6953;48.810;9.204;2022-09-03T05:42:35;98277.13;;;20.17;66.73
13765;BME280;6953;48.810;9.204;2022-09-03T05:45:04;98254.19;;;20.07;66.85
13765;BME280;6953;48.810;9.204;2022-09-03T05:47:30;98334.72;;;20.63;66.56
13765;BME280;6953;48.810;9.204;2022-09-03T05:49:55;98342.66;;;20.72;66.59
13765;BME280;6953;48.810;9.204;2022-09-03T05:52:21;98305.53;;;20.61;65.59
13765;BME280;6953;48.810;9.204;2022-09-03T05:54:47;98247.75;;;20.27;65.26
13765;BME280;6953;48.810;9.204;2022-09-03T05:57:12;98241.09;;;20.31;65.08
13765;BME280;6953;48.810;9.204;2022-09-03T05:59:38;98299.31;;;20.70;64.57
13765;BME280;6953;48.810;9.204;2022-09-03T06:02:03;98367.78;;;21.22;64.27
13765;BME280;6953;48.810;9.204;2022-09-03T06:04:29;98375.72;;;21.31;63.74
13765;BME280;6953;48.810;9.204;2022-09-03T06:06:54;98294.03;;;20.96;63.24
13765;BME280;6953;48.810;9.204;2022-09-03T06:09:21;98368.97;;;21.45;62.86
13765;BME280;6953;48.810;9.204;2022-09-03T06:11:47;98292.75;;;20.99;63.16
13765;BME280;6953;48.810;9.204;2022-09-03T06:14:14;98012.59;;;19.30;63.27
13765;BME280;6953;48.810;9.204;2022-09-03T06:16:42;98356.81;;;21.25;63.63
13765;BME280;6953;48.810;9.204;2022-09-03T06:19:09;98369.47;;;21.23;64.07
13765;BME280;6953;48.810;9.204;2022-09-03T06:21:36;98373.09;;;21.14;64.37
13765;BME280;6953;48.810;9.204;2022-09-03T06:24:04;98291.50;;;20.59;64.36
13765;BME280;6953;48.810;9.204;2022-09-03T06:26:30;98386.03;;;21.09;64.57
13765;BME280;6953;48.810;9.204;2022-09-03T06:28:56;98379.13;;;21.16;64.45
13765;BME280;6953;48.810;9.204;2022-09-03T06:31:22;98311.13;;;20.85;64.37
13765;BME280;6953;48.810;9.204;2022-09-03T06:33:47;98360.84;;;21.29;64.09
13765;BME280;6953;48.810;9.204;2022-09-03T06:36:16;98281.09;;;21.00;63.16
13765;BME280;6953;48.810;9.204;2022-09-03T06:38:42;98356.69;;;21.52;63.00
13765;BME280;6953;48.810;9.204;2022-09-03T06:43:40;98371.22;;;21.75;62.93
13765;BME280;6953;48.810;9.204;2022-09-03T06:46:08;98359.50;;;21.68;63.07
13765;BME280;6953;48.810;9.204;2022-09-03T06:48:35;98346.13;;;21.68;62.75
13765;BME280;6953;48.810;9.204;2022-09-03T06:51:13;98394.00;;;21.87;62.77
13765;BME280;6953;48.810;9.204;2022-09-03T06:53:41;98385.84;;;21.88;63.05
13765;BME280;6953;48.810;9.204;2022-09-03T06:56:10;98342.97;;;21.72;63.12
13765;BME280;6953;48.810;9.204;2022-09-03T06:58:38;98363.88;;;22.02;62.83
13765;BME280;6953;48.810;9.204;2022-09-03T07:01:07;98389.03;;;22.25;62.08
13765;BME280;6953;48.810;9.204;2022-09-03T07:03:33;98294.91;;;21.72;61.91
13765;BME280;6953;48.810;9.204;2022-09-03T07:06:04;98318.06;;;21.97;61.67
13765;BME280;6953;48.810;9.204;2022-09-03T07:08:30;98353.13;;;22.27;61.23
13765;BME280;6953;48.810;9.204;2022-09-03T07:10:58;98382.88;;;22.66;60.54
13765;BME280;6953;48.810;9.204;2022-09-03T07:13:24;98381.41;;;22.79;60.20
13765;BME280;6953;48.810;9.204;2022-09-03T07:16:00;98376.56;;;22.91;59.95
13765;BME280;6953;48.810;9.204;2022-09-03T07:18:26;98314.44;;;22.47;60.09
13765;BME280;6953;48.810;9.204;2022-09-03T07:20:51;98386.44;;;22.82;60.60
13765;BME280;6953;48.810;9.204;2022-09-03T07:23:16;98387.56;;;22.80;60.39
13765;BME280;6953;48.810;9.204;2022-09-03T07:25:42;98380.75;;;22.93;60.14
13765;BME280;6953;48.810;9.204;2022-09-03T07:28:08;98380.97;;;23.15;59.19
13765;BME280;6953;48.810;9.204;2022-09-03T07:30:33;98392.38;;;23.33;58.84
13765;BME280;6953;48.810;9.204;2022-09-03T07:32:58;98293.25;;;22.70;59.12
13765;BME280;6953;48.810;9.204;2022-09-03T07:35:28;98384.47;;;23.24;59.12
13765;BME280;6953;48.810;9.204;2022-09-03T07:37:53;98390.19;;;23.29;59.40
13765;BME280;6953;48.810;9.204;2022-09-03T07:40:19;98394.34;;;23.55;58.46
13765;BME280;6953;48.810;9.204;2022-09-03T07:42:44;98352.97;;;23.66;57.73
13765;BME280;6953;48.810;9.204;2022-09-03T07:45:12;98386.91;;;24.13;56.55
13765;BME280;6953;48.810;9.204;2022-09-03T07:47:45;98314.31;;;24.23;55.85
13765;BME280;6953;48.810;9.204;2022-09-03T07:50:11;98381.97;;;25.01;53.60
13765;BME280;6953;48.810;9.204;2022-09-03T07:52:36;98307.56;;;25.10;52.02
13765;BME280;6953;48.810;9.204;2022-09-03T07:55:02;98311.13;;;25.76;49.92
13765;BME280;6953;48.810;9.204;2022-09-03T07:57:29;98287.78;;;25.76;49.54
13765;BME280;6953;48.810;9.204;2022-09-03T07:59:54;98399.81;;;26.85;48.46
13765;BME280;6953;48.810;9.204;2022-09-03T08:02:20;98351.09;;;27.01;46.81
13765;BME280;6953;48.810;9.204;2022-09-03T08:04:45;98357.50;;;27.62;45.19
13765;BME280;6953;48.810;9.204;2022-09-03T08:07:11;98401.97;;;28.21;44.28
13765;BME280;6953;48.810;9.204;2022-09-03T08:09:36;98391.53;;;28.46;43.84
13765;BME280;6953;48.810;9.204;2022-09-03T08:12:02;98404.66;;;28.21;44.34
13765;BME280;6953;48.810;9.204;2022-09-03T08:14:27;98396.97;;;27.91;44.97
13765;BME280;6953;48.810;9.204;2022-09-03T08:16:56;98316.38;;;27.33;45.39
13765;BME280;6953;48.810;9.204;2022-09-03T08:19:24;98409.19;;;27.87;45.75
13765;BME280;6953;48.810;9.204;2022-09-03T08:21:49;98323.72;;;27.39;45.77
13765;BME280;6953;48.810;9.204;2022-09-03T08:24:16;98419.94;;;27.80;46.27
13765;BME280;6953;48.810;9.204;2022-09-03T08:26:42;98408.72;;;27.83;46.72
13765;BME280;6953;48.810;9.204;2022-09-03T08:29:08;98357.22;;;28.06;45.51
13765;BME280;6953;48.810;9.204;2022-09-03T08:31:34;98405.22;;;29.51;42.94
13765;BME280;6953;48.810;9.204;2022-09-03T08:34:02;98408.09;;;30.59;39.88
13765;BME280;6953;48.810;9.204;2022-09-03T08:36:30;98336.75;;;31.46;36.43
13765;BME280;6953;48.810;9.204;2022-09-03T08:39:00;98417.66;;;32.53;34.80
13765;BME280;6953;48.810;9.204;2022-09-03T08:49:35;98420.34;;;35.10;30.26
13765;BME280;6953;48.810;9.204;2022-09-03T08:52:05;98345.91;;;36.57;27.24
13765;BME280;6953;48.810;9.204;2022-09-03T08:54:33;98392.13;;;38.33;24.93
13765;BME280;6953;48.810;9.204;2022-09-03T08:57:02;98380.28;;;37.60;25.95
13765;BME280;6953;48.810;9.204;2022-09-03T08:59:30;98445.09;;;36.20;28.10
13765;BME280;6953;48.810;9.204;2022-09-03T09:02:16;98431.91;;;34.77;30.13
13765;BME280;6953;48.810;9.204;2022-09-03T09:07:52;98354.41;;;31.62;34.01
13765;BME280;6953;48.810;9.204;2022-09-03T09:10:31;98371.56;;;30.81;36.08
13765;BME280;6953;48.810;9.204;2022-09-03T09:18:44;98433.50;;;29.35;41.45
13765;BME280;6953;48.810;9.204;2022-09-03T09:21:17;98435.09;;;29.23;42.50
13765;BME280;6953;48.810;9.204;2022-09-03T09:23:49;98427.63;;;29.32;42.81
13765;BME280;6953;48.810;9.204;2022-09-03T09:26:20;98391.94;;;29.88;41.82
13765;BME280;6953;48.810;9.204;2022-09-03T09:28:49;98439.78;;;29.87;41.55
13765;BME280;6953;48.810;9.204;2022-09-03T09:31:16;98441.94;;;29.19;43.17
13765;BME280;6953;48.810;9.204;2022-09-03T09:33:43;98384.06;;;28.48;44.59
13765;BME280;6953;48.810;9.204;2022-09-03T09:36:13;98432.63;;;28.81;45.42
13765;BME280;6953;48.810;9.204;2022-09-03T09:38:42;98418.00;;;31.72;38.37
13765;BME280;6953;48.810;9.204;2022-09-03T09:41:13;98443.72;;;35.45;30.28
13765;BME280;6953;48.810;9.204;2022-09-03T09:43:40;98447.22;;;38.27;24.99
13765;BME280;6953;48.810;9.204;2022-09-03T09:46:18;98471.94;;;39.80;23.31
13765;BME280;6953;48.810;9.204;2022-09-03T09:48:49;98450.56;;;38.02;25.43
13765;BME280;6953;48.810;9.204;2022-09-03T09:51:24;98448.47;;;38.82;23.46
13765;BME280;6953;48.810;9.204;2022-09-03T09:56:25;98383.22;;;41.66;19.51
13765;BME280;6953;48.810;9.204;2022-09-03T09:59:07;98465.97;;;40.58;20.84
13765;BME280;6953;48.810;9.204;2022-09-03T10:01:36;98444.75;;;37.46;23.92
13765;BME280;6953;48.810;9.204;2022-09-03T10:04:21;98380.34;;;34.76;27.54
13765;BME280;6953;48.810;9.204;2022-09-03T10:06:53;98427.19;;;34.27;29.57
13765;BME280;6953;48.810;9.204;2022-09-03T10:09:24;98431.47;;;33.71;31.25
13765;BME280;6953;48.810;9.204;2022-09-03T10:12:39;98419.91;;;32.81;32.66
13765;BME280;6953;48.810;9.204;2022-09-03T10:15:19;98440.56;;;32.21;33.58
13765;BME280;6953;48.810;9.204;2022-09-03T10:20:42;98324.66;;;32.33;32.22
13765;BME280;6953;48.810;9.204;2022-09-03T10:23:25;98346.47;;;31.60;33.37
13765;BME280;6953;48.810;9.204;2022-09-03T10:26:09;98445.50;;;32.06;34.49
13765;BME280;6953;48.810;9.204;2022-09-03T10:28:38;98380.22;;;32.37;33.85
13765;BME280;6953;48.810;9.204;2022-09-03T10:36:59;98448.66;;;39.17;22.53
13765;BME280;6953;48.810;9.204;2022-09-03T11:00:44;98434.97;;;38.39;23.73
13765;BME280;6953;48.810;9.204;2022-09-03T11:03:42;98430.41;;;38.18;24.17
13765;BME280;6953;48.810;9.204;2022-09-03T11:06:29;98422.81;;;38.25;23.75
13765;BME280;6953;48.810;9.204;2022-09-03T11:09:36;98426.63;;;37.66;24.55
13765;BME280;6953;48.810;9.204;2022-09-03T11:12:07;98419.09;;;36.88;25.16
13765;BME280;6953;48.810;9.204;2022-09-03T11:14:43;98406.25;;;35.85;27.05
13765;BME280;6953;48.810;9.204;2022-09-03T11:17:15;98402.63;;;34.73;28.89
13765;BME280;6953;48.810;9.204;2022-09-03T11:19:50;98285.06;;;33.20;30.29
13765;BME280;6953;48.810;9.204;2022-09-03T11:22:17;98328.00;;;32.71;31.58
13765;BME280;6953;48.810;9.204;2022-09-03T11:24:50;98316.91;;;32.19;33.12
13765;BME280;6953;48.810;9.204;2022-09-03T11:32:46;98338.34;;;31.54;35.17
13765;BME280;6953;48.810;9.204;2022-09-03T11:35:27;98381.16;;;31.52;36.35
13765;BME280;6953;48.810;9.204;2022-09-03T11:37:59;98374.91;;;30.77;37.69
13765;BME280;6953;48.810;9.204;2022-09-03T11:40:36;98373.38;;;30.24;38.76
13765;BME280;6953;48.810;9.204;2022-09-03T11:46:00;98303.72;;;29.55;40.69
13765;BME280;6953;48.810;9.204;2022-09-03T11:48:33;98245.44;;;29.00;41.44
13765;BME280;6953;48.810;9.204;2022-09-03T11:51:00;98354.25;;;29.48;42.31
13765;BME280;6953;48.810;9.204;2022-09-03T11:53:32;98366.94;;;29.34;42.55
13765;BME280;6953;48.810;9.204;2022-09-03T11:58:33;98294.00;;;27.87;44.83
13765;BME280;6953;48.810;9.204;2022-09-03T12:01:15;98386.56;;;27.88;46.69
13765;BME280;6953;48.810;9.204;2022-09-03T12:03:55;98400.47;;;27.43;48.60
13765;BME280;6953;48.810;9.204;2022-09-03T12:17:58;98410.59;;;25.98;54.25
13765;BME280;6953;48.810;9.204;2022-09-03T12:23:42;98425.34;;;25.43;56.66
13765;BME280;6953;48.810;9.204;2022-09-03T12:26:17;98351.13;;;24.75;58.76
13765;BME280;6953;48.810;9.204;2022-09-03T12:28:52;98354.53;;;24.61;59.87
13765;BME280;6953;48.810;9.204;2022-09-03T12:31:21;98410.97;;;24.75;61.39
13765;BME280;6953;48.810;9.204;2022-09-03T12:34:01;98421.81;;;24.59;62.35
13765;BME280;6953;48.810;9.204;2022-09-03T12:36:40;98433.56;;;24.58;63.04
13765;BME280;6953;48.810;9.204;2022-09-03T12:39:20;98418.28;;;24.59;62.97
13765;BME280;6953;48.810;9.204;2022-09-03T12:41:56;98420.13;;;24.58;63.69
13765;BME280;6953;48.810;9.204;2022-09-03T12:49:39;98377.41;;;22.34;79.82
13765;BME280;6953;48.810;9.204;2022-09-03T12:54:45;98459.59;;;21.81;88.42
13765;BME280;6953;48.810;9.204;2022-09-03T12:57:15;98461.59;;;21.44;90.31
13765;BME280;6953;48.810;9.204;2022-09-03T12:59:46;98466.72;;;21.20;91.91
13765;BME280;6953;48.810;9.204;2022-09-03T13:02:23;98472.66;;;20.97;94.30
13765;BME280;6953;48.810;9.204;2022-09-03T13:04:50;98452.03;;;20.63;96.51
13765;BME280;6953;48.810;9.204;2022-09-03T13:07:55;98463.69;;;20.62;98.18
13765;BME280;6953;48.810;9.204;2022-09-03T13:10:25;98432.47;;;20.18;100.00
13765;BME280;6953;48.810;9.204;2022-09-03T13:12:58;98351.88;;;19.70;100.00
13765;BME280;6953;48.810;9.204;2022-09-03T13:15:24;98460.31;;;20.33;100.00
13765;BME280;6953;48.810;9.204;2022-09-03T13:18:10;98471.53;;;20.36;100.00
13765;BME280;6953;48.810;9.204;2022-09-03T13:20:53;98470.56;;;20.37;100.00
13765;BME280;6953;48.810;9.204;2022-09-03T13:23:52;98472.59;;;20.16;100.00
13765;BME280;6953;48.810;9.204;2022-09-03T13:26:31;98343.56;;;19.37;100.00
13765;BME280;6953;48.810;9.204;2022-09-03T13:31:33;98473.63;;;20.69;100.00
13765;BME280;6953;48.810;9.204;2022-09-03T13:34:24;98471.72;;;20.89;100.00
13765;BME280;6953;48.810;9.204;2022-09-03T13:39:39;98471.91;;;21.57;100.00
13765;BME280;6953;48.810;9.204;2022-09-03T13:42:12;98465.13;;;21.88;100.00
13765;BME280;6953;48.810;9.204;2022-09-03T13:44:44;98435.13;;;22.52;98.02
13765;BME280;6953;48.810;9.204;2022-09-03T13:47:26;98419.81;;;23.51;93.46
13765;BME280;6953;48.810;9.204;2022-09-03T13:50:18;98450.13;;;26.41;76.06
13765;BME280;6953;48.810;9.204;2022-09-03T13:53:01;98463.75;;;28.37;65.48
13765;BME280;6953;48.810;9.204;2022-09-03T13:55:48;98452.72;;;29.06;62.57
13765;BME280;6953;48.810;9.204;2022-09-03T13:58:40;98453.66;;;29.39;60.42
13765;BME280;6953;48.810;9.204;2022-09-03T14:04:28;98429.28;;;29.20;60.62
13765;BME280;6953;48.810;9.204;2022-09-03T14:07:06;98431.75;;;28.74;61.22
13765;BME280;6953;48.810;9.204;2022-09-03T14:15:49;98442.25;;;26.39;69.26
13765;BME280;6953;48.810;9.204;2022-09-03T14:23:26;98441.63;;;25.41;74.13
13765;BME280;6953;48.810;9.204;2022-09-03T14:25:59;98433.00;;;25.32;74.05
13765;BME280;6953;48.810;9.204;2022-09-03T14:28:35;98442.47;;;25.20;75.09
13765;BME280;6953;48.810;9.204;2022-09-03T14:56:12;98448.78;;;23.72;82.92
13765;BME280;6953;48.810;9.204;2022-09-03T15:01:31;98444.59;;;23.77;82.53
13765;BME280;6953;48.810;9.204;2022-09-03T15:04:16;98406.06;;;23.62;82.50
13765;BME280;6953;48.810;9.204;2022-09-03T15:15:09;98412.59;;;23.92;81.48
13765;BME280;6953;48.810;9.204;2022-09-03T15:17:54;98448.41;;;24.23;81.16
13765;BME280;6953;48.810;9.204;2022-09-03T15:23:12;98440.88;;;25.03;77.98
13765;BME280;6953;48.810;9.204;2022-09-03T15:26:09;98431.44;;;25.82;74.73
13765;BME280;6953;48.810;9.204;2022-09-03T15:34:03;98392.06;;;26.32;71.48
13765;BME280;6953;48.810;9.204;2022-09-03T15:36:42;98392.31;;;26.08;72.05
13765;BME280;6953;48.810;9.204;2022-09-03T15:39:24;98279.94;;;25.24;71.49
13765;BME280;6953;48.810;9.204;2022-09-03T15:41:57;98400.66;;;25.99;71.90
13765;BME280;6953;48.810;9.204;2022-09-03T15:44:25;98444.75;;;26.41;72.06
13765;BME280;6953;48.810;9.204;2022-09-03T15:46:59;98414.78;;;26.30;71.05
13765;BME280;6953;48.810;9.204;2022-09-03T15:49:51;98449.31;;;26.40;70.96
13765;BME280;6953;48.810;9.204;2022-09-03T15:57:34;98451.78;;;25.54;73.38
13765;BME280;6953;48.810;9.204;2022-09-03T16:00:18;98464.13;;;25.18;75.19
13765;BME280;6953;48.810;9.204;2022-09-03T16:03:12;98451.34;;;24.90;76.80
13765;BME280;6953;48.810;9.204;2022-09-03T16:05:50;98459.84;;;24.63;78.04
13765;BME280;6953;48.810;9.204;2022-09-03T16:08:57;98456.22;;;24.40;79.63
13765;BME280;6953;48.810;9.204;2022-09-03T16:11:44;98420.78;;;23.98;80.13
13765;BME280;6953;48.810;9.204;2022-09-03T16:14:19;98469.53;;;24.10;81.46
13765;BME280;6953;48.810;9.204;2022-09-03T16:17:08;98464.69;;;24.05;81.80
13765;BME280;6953;48.810;9.204;2022-09-03T16:22:39;98464.72;;;23.89;83.87
13765;BME280;6953;48.810;9.204;2022-09-03T16:25:15;98376.78;;;23.29;83.98
13765;BME280;6953;48.810;9.204;2022-09-03T16:33:22;98450.09;;;23.52;85.31
13765;BME280;6953;48.810;9.204;2022-09-03T16:38:54;98442.72;;;23.46;86.47
13765;BME280;6953;48.810;9.204;2022-09-03T16:44:06;98452.66;;;23.53;85.69
13765;BME280;6953;48.810;9.204;2022-09-03T16:46:59;98447.78;;;23.57;84.11
13765;BME280;6953;48.810;9.204;2022-09-03T16:49:45;98468.03;;;23.59;83.92
13765;BME280;6953;48.810;9.204;2022-09-03T16:55:17;98453.78;;;23.75;83.99
13765;BME280;6953;48.810;9.204;2022-09-03T17:00:48;98327.91;;;23.35;83.90
13765;BME280;6953;48.810;9.204;2022-09-03T17:09:17;98403.56;;;24.39;80.53
13765;BME280;6953;48.810;9.204;2022-09-03T17:14:35;98379.97;;;24.26;79.95
13765;BME280;6953;48.810;9.204;2022-09-03T17:20:18;98455.22;;;24.49;81.05
13765;BME280;6953;48.810;9.204;2022-09-03T17:25:34;98393.16;;;23.74;81.81
13765;BME280;6953;48.810;9.204;2022-09-03T17:30:42;98468.22;;;23.90;83.11
13765;BME280;6953;48.810;9.204;2022-09-03T17:36:15;98385.59;;;22.98;84.86